createdAt,value
2023-10-21T00:01:21.497Z,14.16
2023-10-21T00:03:49.316Z,14.15
2023-10-21T00:06:17.180Z,14.11
2023-10-21T00:08:44.698Z,14.07
2023-10-21T00:11:14.266Z,14.03
2023-10-21T00:13:41.578Z,14.01
2023-10-21T00:16:08.872Z,14.01
2023-10-21T00:18:37.886Z,14.01
2023-10-21T00:21:06.744Z,13.99
2023-10-21T00:23:34.136Z,13.99
2023-10-21T00:26:06.373Z,13.98
2023-10-21T00:28:34.677Z,13.94
2023-10-21T00:32:11.744Z,13.89
2023-10-21T00:36:00.305Z,13.85
2023-10-21T00:39:57.292Z,13.81
2023-10-21T00:47:44.405Z,13.67
2023-10-21T00:51:32.926Z,13.54
2023-10-21T00:54:20.654Z,13.49
2023-10-21T00:56:47.896Z,13.50
2023-10-21T00:59:15.596Z,13.51
2023-10-21T01:04:43.913Z,13.55
2023-10-21T01:07:20.133Z,13.54
2023-10-21T01:09:47.489Z,13.54
2023-10-21T01:12:14.790Z,13.54
2023-10-21T01:14:42.261Z,13.53
2023-10-21T01:17:10.184Z,13.53
2023-10-21T01:19:37.509Z,13.50
2023-10-21T01:22:04.999Z,13.52
2023-10-21T01:24:33.026Z,13.55
2023-10-21T01:27:00.154Z,13.59
2023-10-21T01:29:27.354Z,13.62
2023-10-21T01:31:54.727Z,13.65
2023-10-21T01:34:21.947Z,13.66
2023-10-21T01:36:49.298Z,13.66
2023-10-21T01:39:16.800Z,13.66
2023-10-21T01:41:44.945Z,13.65
2023-10-21T01:44:12.200Z,13.62
2023-10-21T01:46:39.589Z,13.56
2023-10-21T01:49:06.768Z,13.51
2023-10-21T01:51:33.963Z,13.47
2023-10-21T01:54:01.767Z,13.43
2023-10-21T01:56:28.950Z,13.44
2023-10-21T01:58:57.023Z,13.46
2023-10-21T02:01:24.230Z,13.47
2023-10-21T02:03:51.521Z,13.49
2023-10-21T02:06:18.885Z,13.50
2023-10-21T02:08:46.212Z,13.51
2023-10-21T02:11:13.381Z,13.54
2023-10-21T02:13:41.125Z,13.57
2023-10-21T02:16:11.624Z,13.58
2023-10-21T02:18:38.911Z,13.60
2023-10-21T02:21:07.717Z,13.62
2023-10-21T02:23:36.010Z,13.60
2023-10-21T02:26:08.522Z,13.60
2023-10-21T02:28:36.218Z,13.62
2023-10-21T02:31:05.054Z,13.65
2023-10-21T02:33:32.932Z,13.68
2023-10-21T02:36:00.405Z,13.71
2023-10-21T02:38:27.648Z,13.70
2023-10-21T02:40:54.906Z,13.71
2023-10-21T02:43:22.157Z,13.72
2023-10-21T02:45:50.146Z,13.73
2023-10-21T02:48:17.418Z,13.74
2023-10-21T02:50:44.742Z,13.75
2023-10-21T02:53:11.899Z,13.73
2023-10-21T02:55:39.243Z,13.69
2023-10-21T02:58:06.343Z,13.66
2023-10-21T03:00:33.663Z,13.61
2023-10-21T03:03:01.018Z,13.53
2023-10-21T03:05:28.277Z,13.49
2023-10-21T03:07:55.701Z,13.49
2023-10-21T03:10:24.554Z,13.51
2023-10-21T03:12:51.770Z,13.54
2023-10-21T03:15:19.079Z,13.52
2023-10-21T03:17:46.843Z,13.46
2023-10-21T03:20:14.263Z,13.47
2023-10-21T03:22:41.506Z,13.48
2023-10-21T03:25:09.389Z,13.39
2023-10-21T03:27:37.880Z,13.32
2023-10-21T03:30:06.317Z,13.32
2023-10-21T03:32:33.915Z,13.36
2023-10-21T03:35:01.145Z,13.37
2023-10-21T03:37:28.259Z,13.38
2023-10-21T03:39:55.461Z,13.39
2023-10-21T03:42:22.685Z,13.40
2023-10-21T03:44:49.951Z,13.41
2023-10-21T03:47:18.071Z,13.41
2023-10-21T03:49:45.298Z,13.40
2023-10-21T03:52:12.960Z,13.39
2023-10-21T03:54:40.170Z,13.39
2023-10-21T03:57:07.971Z,13.34
2023-10-21T03:59:35.865Z,13.31
2023-10-21T04:02:02.964Z,13.29
2023-10-21T04:04:30.160Z,13.25
2023-10-21T04:06:57.491Z,13.24
2023-10-21T04:09:25.422Z,13.25
2023-10-21T04:11:52.632Z,13.25
2023-10-21T04:14:19.900Z,13.25
2023-10-21T04:16:47.063Z,13.24
2023-10-21T04:19:17.198Z,13.26
2023-10-21T04:21:45.369Z,13.27
2023-10-21T04:24:12.532Z,13.26
2023-10-21T04:26:39.854Z,13.22
2023-10-21T04:29:07.115Z,13.23
2023-10-21T04:31:37.394Z,13.24
2023-10-21T04:34:05.095Z,13.24
2023-10-21T04:36:32.200Z,13.24
2023-10-21T04:38:59.496Z,13.25
2023-10-21T04:41:26.673Z,13.26
2023-10-21T04:43:53.936Z,13.22
2023-10-21T04:46:21.253Z,13.20
2023-10-21T04:48:48.464Z,13.15
2023-10-21T04:51:15.811Z,13.13
2023-10-21T04:53:44.336Z,13.16
2023-10-21T04:56:11.545Z,13.19
2023-10-21T04:58:38.811Z,13.20
2023-10-21T05:01:07.086Z,13.15
2023-10-21T05:03:34.453Z,13.15
2023-10-21T05:06:01.926Z,13.17
2023-10-21T05:08:29.260Z,13.21
2023-10-21T05:10:56.665Z,13.25
2023-10-21T05:13:25.164Z,13.26
2023-10-21T05:15:52.392Z,13.26
2023-10-21T05:18:20.787Z,13.28
2023-10-21T05:20:48.073Z,13.29
2023-10-21T05:23:15.800Z,13.28
2023-10-21T05:25:42.965Z,13.28
2023-10-21T05:28:10.411Z,13.29
2023-10-21T05:30:39.194Z,13.31
2023-10-21T05:33:09.404Z,13.31
2023-10-21T05:35:37.407Z,13.28
2023-10-21T05:38:04.810Z,13.28
2023-10-21T05:40:32.103Z,13.28
2023-10-21T05:42:59.355Z,13.30
2023-10-21T05:45:26.628Z,13.33
2023-10-21T05:47:55.111Z,13.33
2023-10-21T05:50:22.815Z,13.33
2023-10-21T05:52:50.032Z,13.27
2023-10-21T05:55:17.283Z,13.22
2023-10-21T05:57:44.570Z,13.23
2023-10-21T06:00:13.959Z,13.27
2023-10-21T06:02:41.818Z,13.30
2023-10-21T06:05:09.333Z,13.32
2023-10-21T06:07:36.615Z,13.36
2023-10-21T06:10:04.327Z,13.38
2023-10-21T06:12:31.639Z,13.37
2023-10-21T06:14:59.228Z,13.30
2023-10-21T06:17:26.624Z,13.25
2023-10-21T06:19:54.140Z,13.26
2023-10-21T06:22:21.403Z,13.29
2023-10-21T06:24:48.687Z,13.37
2023-10-21T06:27:16.063Z,13.41
2023-10-21T06:29:43.468Z,13.43
2023-10-21T06:32:11.701Z,13.46
2023-10-21T06:34:39.116Z,13.51
2023-10-21T06:37:06.342Z,13.58
2023-10-21T06:39:33.690Z,13.63
2023-10-21T06:42:01.047Z,13.67
2023-10-21T06:44:28.317Z,13.72
2023-10-21T06:46:55.754Z,13.73
2023-10-21T06:49:22.982Z,13.73
2023-10-21T06:51:51.144Z,13.73
2023-10-21T06:54:18.938Z,13.75
2023-10-21T06:56:49.672Z,13.74
2023-10-21T06:59:17.576Z,13.76
2023-10-21T07:01:44.892Z,13.80
2023-10-21T07:04:12.182Z,13.87
2023-10-21T07:06:40.147Z,13.93
2023-10-21T07:09:08.867Z,13.95
2023-10-21T07:11:36.332Z,13.97
2023-10-21T07:14:05.362Z,14.02
2023-10-21T07:16:33.159Z,14.09
2023-10-21T07:19:00.359Z,14.12
2023-10-21T07:21:27.691Z,14.16
2023-10-21T07:23:55.173Z,14.18
2023-10-21T07:26:22.634Z,14.22
2023-10-21T07:28:49.879Z,14.26
2023-10-21T07:31:17.171Z,14.27
2023-10-21T07:33:44.460Z,14.29
2023-10-21T07:36:11.746Z,14.31
2023-10-21T07:38:39.041Z,14.36
2023-10-21T07:41:14.108Z,14.41
2023-10-21T07:43:41.453Z,14.46
2023-10-21T07:46:08.735Z,14.50
2023-10-21T07:48:36.099Z,14.52
2023-10-21T07:51:03.943Z,14.59
2023-10-21T07:53:31.104Z,14.63
2023-10-21T07:55:58.358Z,14.67
2023-10-21T07:58:26.224Z,14.72
2023-10-21T08:00:53.468Z,14.78
2023-10-21T08:03:21.504Z,14.82
2023-10-21T08:05:48.808Z,14.89
2023-10-21T08:08:16.240Z,14.98
2023-10-21T08:10:43.653Z,15.06
2023-10-21T08:13:10.869Z,15.17
2023-10-21T08:15:38.148Z,15.25
2023-10-21T08:18:05.643Z,15.36
2023-10-21T08:20:33.023Z,15.44
2023-10-21T08:23:00.271Z,15.53
2023-10-21T08:25:27.519Z,15.66
2023-10-21T08:27:54.656Z,15.77
2023-10-21T08:30:22.043Z,15.87
2023-10-21T08:32:52.436Z,15.99
2023-10-21T08:35:20.069Z,16.09
2023-10-21T08:37:47.449Z,16.20
2023-10-21T08:40:15.150Z,16.31
2023-10-21T08:43:01.069Z,16.41
2023-10-21T08:45:31.322Z,16.51
2023-10-21T08:47:59.798Z,16.64
2023-10-21T08:50:28.869Z,16.72
2023-10-21T08:52:59.633Z,16.79
2023-10-21T08:55:27.441Z,16.89
2023-10-21T08:57:55.630Z,16.99
2023-10-21T09:00:23.123Z,17.12
2023-10-21T09:02:50.734Z,17.27
2023-10-21T09:05:18.633Z,17.38
2023-10-21T09:07:51.014Z,17.48
2023-10-21T09:10:19.526Z,17.60
2023-10-21T09:12:47.204Z,17.69
2023-10-21T09:15:16.942Z,17.79
2023-10-21T09:17:53.796Z,17.90
2023-10-21T09:20:23.064Z,17.99
2023-10-21T09:22:56.883Z,18.07
2023-10-21T09:25:24.736Z,18.14
2023-10-21T09:27:59.392Z,18.19
2023-10-21T09:30:28.558Z,18.20
2023-10-21T09:33:06.318Z,18.18
2023-10-21T09:35:36.310Z,18.15
2023-10-21T09:38:19.561Z,18.10
2023-10-21T09:40:47.335Z,18.06
2023-10-21T09:43:15.130Z,18.04
2023-10-21T09:45:47.210Z,18.00
2023-10-21T09:48:15.087Z,17.97
2023-10-21T09:50:51.025Z,17.94
2023-10-21T09:53:21.383Z,17.93
2023-10-21T09:55:50.264Z,17.97
2023-10-21T09:58:21.147Z,18.00
2023-10-21T10:00:49.352Z,18.05
2023-10-21T10:03:19.457Z,18.13
2023-10-21T10:05:47.755Z,18.23
2023-10-21T10:08:15.913Z,18.29
2023-10-21T10:10:43.853Z,18.39
2023-10-21T10:13:14.675Z,18.51
2023-10-21T10:15:43.973Z,18.68
2023-10-21T10:18:20.349Z,18.84
2023-10-21T10:20:52.456Z,19.00
2023-10-21T10:23:21.493Z,19.09
2023-10-21T10:25:53.882Z,19.16
2023-10-21T10:28:23.365Z,19.31
2023-10-21T10:30:51.828Z,19.54
2023-10-21T10:33:23.744Z,19.98
2023-10-21T10:35:52.030Z,20.38
2023-10-21T10:38:33.023Z,20.89
2023-10-21T10:41:08.176Z,21.32
2023-10-21T10:43:37.241Z,21.54
2023-10-21T10:46:04.614Z,21.49
2023-10-21T10:48:31.929Z,21.31
2023-10-21T10:51:02.531Z,21.33
2023-10-21T10:53:30.025Z,21.60
2023-10-21T10:55:57.615Z,21.96
2023-10-21T10:58:28.342Z,22.15
2023-10-21T11:00:56.292Z,22.33
2023-10-21T11:03:31.491Z,22.32
2023-10-21T11:05:59.785Z,22.01
2023-10-21T11:08:29.965Z,21.81
2023-10-21T11:11:07.771Z,21.73
2023-10-21T11:13:35.154Z,21.72
2023-10-21T11:16:07.113Z,21.80
2023-10-21T11:18:35.938Z,21.94
2023-10-21T11:21:03.232Z,22.27
2023-10-21T11:23:30.615Z,22.41
2023-10-21T11:26:00.516Z,22.27
2023-10-21T11:28:29.296Z,22.09
2023-10-21T11:31:00.275Z,21.97
2023-10-21T11:33:28.653Z,21.82
2023-10-21T11:35:57.877Z,21.69
2023-10-21T11:38:25.305Z,21.53
2023-10-21T11:40:52.636Z,21.41
2023-10-21T11:43:20.640Z,21.32
2023-10-21T11:45:51.142Z,21.19
2023-10-21T11:48:19.082Z,21.08
2023-10-21T11:50:47.187Z,21.02
2023-10-21T11:53:15.153Z,20.93
2023-10-21T11:55:46.106Z,20.92
2023-10-21T11:58:32.047Z,20.96
2023-10-21T12:01:28.769Z,20.96
2023-10-21T12:04:31.269Z,20.93
2023-10-21T12:07:07.432Z,20.88
2023-10-21T12:09:53.075Z,20.88
2023-10-21T12:12:38.449Z,20.83
2023-10-21T12:15:11.847Z,20.78
2023-10-21T12:17:41.767Z,20.76
2023-10-21T12:20:36.098Z,20.76
2023-10-21T12:23:32.317Z,20.80
2023-10-21T12:25:59.983Z,20.85
2023-10-21T12:28:35.983Z,20.87
2023-10-21T12:31:21.984Z,20.89
2023-10-21T12:34:07.848Z,20.87
2023-10-21T12:36:36.679Z,20.78
2023-10-21T12:39:19.275Z,20.78
2023-10-21T12:41:53.453Z,20.76
2023-10-21T12:44:29.013Z,20.78
2023-10-21T12:47:02.499Z,20.80
2023-10-21T12:49:32.428Z,20.78
2023-10-21T12:52:00.522Z,20.75
2023-10-21T12:54:32.906Z,20.72
2023-10-21T12:57:00.284Z,20.70
2023-10-21T12:59:27.772Z,20.67
2023-10-21T13:02:19.943Z,20.65
2023-10-21T13:04:47.528Z,20.65
2023-10-21T13:07:14.939Z,20.64
2023-10-21T13:09:44.419Z,20.64
2023-10-21T13:12:16.159Z,20.62
2023-10-21T13:14:43.924Z,20.63
2023-10-21T13:17:11.245Z,20.63
2023-10-21T13:19:39.083Z,20.62
2023-10-21T13:22:07.634Z,20.62
2023-10-21T13:24:36.803Z,20.63
2023-10-21T13:27:07.568Z,20.62
2023-10-21T13:29:34.993Z,20.63
2023-10-21T13:32:02.818Z,20.65
2023-10-21T13:34:31.389Z,20.68
2023-10-21T13:36:58.859Z,20.68
2023-10-21T13:39:29.789Z,20.65
2023-10-21T13:41:57.741Z,20.60
2023-10-21T13:44:25.015Z,20.56
2023-10-21T13:46:52.376Z,20.55
2023-10-21T13:49:19.937Z,20.53
2023-10-21T13:51:48.753Z,20.52
2023-10-21T13:54:16.466Z,20.50
2023-10-21T13:56:44.076Z,20.49
2023-10-21T13:59:15.024Z,20.47
2023-10-21T14:01:44.086Z,20.46
2023-10-21T14:04:14.276Z,20.44
2023-10-21T14:06:42.497Z,20.43
2023-10-21T14:09:17.655Z,20.42
2023-10-21T14:11:45.081Z,20.41
2023-10-21T14:14:12.385Z,20.37
2023-10-21T14:16:39.540Z,20.34
2023-10-21T14:19:10.002Z,20.28
2023-10-21T14:21:37.755Z,20.20
2023-10-21T14:24:08.115Z,20.11
2023-10-21T14:26:37.083Z,20.03
2023-10-21T14:29:04.492Z,20.03
2023-10-21T14:31:31.971Z,19.99
2023-10-21T14:33:59.639Z,19.94
2023-10-21T14:36:26.995Z,19.89
2023-10-21T14:38:54.129Z,19.85
2023-10-21T14:41:21.477Z,19.81
2023-10-21T14:43:49.310Z,19.79
2023-10-21T14:46:16.846Z,19.77
2023-10-21T14:48:44.202Z,19.72
2023-10-21T14:51:11.459Z,19.61
2023-10-21T14:53:38.771Z,19.49
2023-10-21T14:56:06.539Z,19.35
2023-10-21T14:58:33.830Z,19.25
2023-10-21T15:01:03.865Z,19.18
2023-10-21T15:03:31.310Z,19.12
2023-10-21T15:06:01.491Z,19.09
2023-10-21T15:08:28.753Z,19.07
2023-10-21T15:10:55.952Z,18.98
2023-10-21T15:13:29.770Z,18.88
2023-10-21T15:16:03.517Z,18.71
2023-10-21T15:18:32.254Z,18.50
2023-10-21T15:21:07.545Z,18.35
2023-10-21T15:23:36.647Z,18.22
2023-10-21T15:26:24.342Z,18.15
2023-10-21T15:28:51.631Z,18.05
2023-10-21T15:31:19.208Z,17.94
2023-10-21T15:33:46.864Z,17.87
2023-10-21T15:36:14.465Z,17.84
2023-10-21T15:38:41.801Z,17.81
2023-10-21T15:41:19.651Z,17.77
2023-10-21T15:43:47.125Z,17.70
2023-10-21T15:46:14.572Z,17.64
2023-10-21T15:48:42.279Z,17.60
2023-10-21T15:51:12.272Z,17.58
2023-10-21T15:53:40.120Z,17.54
2023-10-21T15:56:08.131Z,17.50
2023-10-21T15:58:35.695Z,17.45
2023-10-21T16:01:03.268Z,17.38
2023-10-21T16:03:30.788Z,17.30
2023-10-21T16:05:58.534Z,17.23
2023-10-21T16:08:26.166Z,17.18
2023-10-21T16:11:04.808Z,17.12
2023-10-21T16:13:35.005Z,17.07
2023-10-21T16:16:04.209Z,17.01
2023-10-21T16:18:34.050Z,16.96
2023-10-21T16:21:01.692Z,16.89
2023-10-21T16:23:29.401Z,16.82
2023-10-21T16:26:01.804Z,16.63
2023-10-21T16:28:29.953Z,16.51
2023-10-21T16:30:57.875Z,16.46
2023-10-21T16:33:25.790Z,16.42
2023-10-21T16:35:56.195Z,16.39
2023-10-21T16:38:26.423Z,16.34
2023-10-21T16:40:54.857Z,16.30
2023-10-21T16:43:22.650Z,16.25
2023-10-21T16:45:50.710Z,16.22
2023-10-21T16:48:19.754Z,16.17
2023-10-21T16:50:47.597Z,16.09
2023-10-21T16:53:15.568Z,15.99
2023-10-21T16:55:43.320Z,15.84
2023-10-21T16:58:11.534Z,15.64
2023-10-21T17:00:39.412Z,15.47
2023-10-21T17:03:07.621Z,15.38
2023-10-21T17:05:39.179Z,15.38
2023-10-21T17:08:07.337Z,15.37
2023-10-21T17:10:35.719Z,15.37
2023-10-21T17:13:03.302Z,15.31
2023-10-21T17:15:31.214Z,15.20
2023-10-21T17:17:59.726Z,15.19
2023-10-21T17:20:28.744Z,15.18
2023-10-21T17:22:56.629Z,15.15
2023-10-21T17:25:25.693Z,15.12
2023-10-21T17:27:53.692Z,15.06
2023-10-21T17:30:22.180Z,14.96
2023-10-21T17:32:51.075Z,14.93
2023-10-21T17:35:19.214Z,14.91
2023-10-21T17:37:47.439Z,14.90
2023-10-21T17:40:15.632Z,14.89
2023-10-21T17:42:43.732Z,14.82
2023-10-21T17:45:11.534Z,14.65
2023-10-21T17:47:39.999Z,14.53
2023-10-21T17:50:13.370Z,14.50
2023-10-21T17:52:42.118Z,14.47
2023-10-21T17:55:10.691Z,14.39
2023-10-21T17:57:40.246Z,14.31
2023-10-21T18:00:09.063Z,14.29
2023-10-21T18:02:40.468Z,14.27
2023-10-21T18:05:09.919Z,14.17
2023-10-21T18:07:38.322Z,14.06
2023-10-21T18:10:06.470Z,14.03
2023-10-21T18:12:36.520Z,14.05
2023-10-21T18:15:06.664Z,14.07
2023-10-21T18:17:36.503Z,14.10
2023-10-21T18:20:08.281Z,14.11
2023-10-21T18:22:36.449Z,14.09
2023-10-21T18:25:05.377Z,13.97
2023-10-21T18:27:33.868Z,13.86
2023-10-21T18:30:02.326Z,13.81
2023-10-21T18:32:29.768Z,13.79
2023-10-21T18:34:58.510Z,13.78
2023-10-21T18:37:26.268Z,13.79
2023-10-21T18:39:54.176Z,13.79
2023-10-21T18:42:22.195Z,13.80
2023-10-21T18:44:50.466Z,13.82
2023-10-21T18:47:17.920Z,13.85
2023-10-21T18:49:45.672Z,13.88
2023-10-21T18:52:17.840Z,13.91
2023-10-21T18:54:45.854Z,13.91
2023-10-21T18:57:14.850Z,13.91
2023-10-21T18:59:42.438Z,13.91
2023-10-21T19:02:12.966Z,13.90
2023-10-21T19:04:41.451Z,13.89
2023-10-21T19:07:10.358Z,13.86
2023-10-21T19:09:38.753Z,13.86
2023-10-21T19:12:07.204Z,13.86
2023-10-21T19:14:35.225Z,13.85
2023-10-21T19:17:05.208Z,13.84
2023-10-21T19:19:35.503Z,13.84
2023-10-21T19:22:04.213Z,13.85
2023-10-21T19:24:32.579Z,13.86
2023-10-21T19:27:00.974Z,13.87
2023-10-21T19:29:30.947Z,13.87
2023-10-21T19:32:00.457Z,13.87
2023-10-21T19:34:29.276Z,13.86
2023-10-21T19:36:57.069Z,13.85
2023-10-21T19:39:31.302Z,13.84
2023-10-21T19:41:59.655Z,13.83
2023-10-21T19:44:28.199Z,13.81
2023-10-21T19:46:56.674Z,13.78
2023-10-21T19:49:24.989Z,13.77
2023-10-21T19:51:53.244Z,13.75
2023-10-21T19:54:21.161Z,13.73
2023-10-21T19:56:48.740Z,13.73
2023-10-21T19:59:16.691Z,13.73
2023-10-21T20:01:45.167Z,13.72
2023-10-21T20:04:14.124Z,13.70
2023-10-21T20:06:42.547Z,13.67
2023-10-21T20:09:15.634Z,13.65
2023-10-21T20:11:44.332Z,13.63
2023-10-21T20:14:12.142Z,13.63
2023-10-21T20:16:39.969Z,13.62
2023-10-21T20:19:07.594Z,13.62
2023-10-21T20:21:37.441Z,13.62
2023-10-21T20:24:05.327Z,13.61
2023-10-21T20:26:33.321Z,13.60
2023-10-21T20:29:00.782Z,13.59
2023-10-21T20:31:28.705Z,13.57
2023-10-21T20:33:56.152Z,13.57
2023-10-21T20:36:24.677Z,13.57
2023-10-21T20:39:01.951Z,13.57
2023-10-21T20:41:29.319Z,13.58
2023-10-21T20:43:57.065Z,13.57
2023-10-21T20:46:25.599Z,13.55
2023-10-21T20:48:53.316Z,13.49
2023-10-21T20:51:20.761Z,13.41
2023-10-21T20:53:48.322Z,13.36
2023-10-21T20:56:26.387Z,13.33
2023-10-21T20:58:55.344Z,13.32
2023-10-21T21:01:30.961Z,13.31
2023-10-21T21:04:05.395Z,13.31
2023-10-21T21:06:32.953Z,13.33
2023-10-21T21:09:00.242Z,13.35
2023-10-21T21:11:27.586Z,13.36
2023-10-21T21:13:54.830Z,13.38
2023-10-21T21:16:22.050Z,13.39
2023-10-21T21:18:49.467Z,13.41
2023-10-21T21:21:16.698Z,13.44
2023-10-21T21:23:44.041Z,13.45
2023-10-21T21:26:11.357Z,13.48
2023-10-21T21:28:38.562Z,13.50
2023-10-21T21:31:05.729Z,13.51
2023-10-21T21:33:32.961Z,13.53
2023-10-21T21:36:01.768Z,13.53
2023-10-21T21:38:29.161Z,13.52
2023-10-21T21:40:56.951Z,13.51
2023-10-21T21:43:24.310Z,13.52
2023-10-21T21:45:51.679Z,13.52
2023-10-21T21:48:19.263Z,13.51
2023-10-21T21:50:46.496Z,13.52
2023-10-21T21:53:13.656Z,13.51
2023-10-21T21:55:44.856Z,13.48
2023-10-21T21:58:12.122Z,13.46
2023-10-21T22:00:43.851Z,13.46
2023-10-21T22:03:11.174Z,13.46
2023-10-21T22:05:39.627Z,13.45
2023-10-21T22:08:07.297Z,13.43
2023-10-21T22:10:34.926Z,13.48
2023-10-21T22:13:02.548Z,13.52
2023-10-21T22:15:29.848Z,13.56
2023-10-21T22:17:57.312Z,13.60
2023-10-21T22:20:25.620Z,13.63
2023-10-21T22:22:55.459Z,13.65
2023-10-21T22:25:29.832Z,13.68
2023-10-21T22:27:57.568Z,13.72
2023-10-21T22:30:24.733Z,13.75
2023-10-21T22:32:52.091Z,13.80
2023-10-21T22:35:19.565Z,13.82
2023-10-21T22:37:46.762Z,13.85
2023-10-21T22:40:18.712Z,13.86
2023-10-21T22:42:46.261Z,13.85
2023-10-21T22:45:18.852Z,13.83
2023-10-21T22:47:47.599Z,13.81
2023-10-21T22:50:15.021Z,13.78
2023-10-21T22:52:42.373Z,13.78
2023-10-21T22:55:09.775Z,13.81
2023-10-21T22:57:36.923Z,13.84
2023-10-21T23:00:06.100Z,13.87
2023-10-21T23:02:33.637Z,13.88
2023-10-21T23:05:00.937Z,13.89
2023-10-21T23:07:28.197Z,13.89
2023-10-21T23:09:55.517Z,13.88
2023-10-21T23:12:22.727Z,13.91
2023-10-21T23:14:50.502Z,13.91
2023-10-21T23:17:17.718Z,13.87
2023-10-21T23:19:45.052Z,13.85
2023-10-21T23:22:12.358Z,13.85
2023-10-21T23:24:41.111Z,13.82
2023-10-21T23:27:08.550Z,13.84
2023-10-21T23:29:35.959Z,13.88
2023-10-21T23:32:03.173Z,13.90
2023-10-21T23:34:30.435Z,13.91
2023-10-21T23:36:58.078Z,13.89
2023-10-21T23:39:25.379Z,13.86
2023-10-21T23:41:54.199Z,13.85
2023-10-21T23:44:21.428Z,13.89
2023-10-21T23:46:48.647Z,13.88
2023-10-21T23:49:15.886Z,13.88
2023-10-21T23:51:43.113Z,13.88
2023-10-21T23:54:10.406Z,13.84
2023-10-21T23:56:37.796Z,13.83
2023-10-21T23:59:05.018Z,13.87
